De Doornakkers, Netherlands
Current Conditions -  °F | °C
As of 5:42 PM on Tuesday 27 Jan 2015 (Local Time) from EHEH Reporting Station
Overcast Overcast  
Wind Chill: 38°   Ceiling: 9500
Heat Index: 43°   Visibility: 6mi
Dew Point: 37°   Wind: 8mph
Humidity: 81%   Direction: 270°W
Pressure: 30.21"   Gusts: NA
Location:  51.44°N, 5.51°E
Report Text: EHEH 271642Z AUTO 27007KT 9999 FEW016 OVC095 06/03 Q1023 BLU 26007KT 9999 FEW020 BKN040 TEMPO SCT015 BKN020
Loading
Personal Weather Stations






























Interactive Weather Map New forecast layout! Learn more

10-Day Weather Forecast

Advertisements
Track Severe Weather on mobile